Time;durP1;ratioP1;P1;durP2;ratioP2;P2;SDS_P1;SDS_P2;PMS_P1;PMS_P2;Temp;Humidity;BMP_temperature;BMP_pressure;BME280_temperature;BME280_humidity;BME280_pressure;Samples;Min_cycle;Max_cycle;Signal;HPM_P1;HPM_P2
2022/08/07 00:01:37;;;;;;;10.75;7.60;;;;;;;21.11;79.37;99521.70;1726713;83;21056;-75
2022/08/07 00:04:04;;;;;;;11.30;7.65;;;;;;;21.09;79.37;99519.14;1726753;81;21021;-74
2022/08/07 00:06:31;;;;;;;13.15;7.25;;;;;;;21.07;79.33;99521.59;1726778;83;21136;-75
2022/08/07 00:08:58;;;;;;;9.50;8.18;;;;;;;21.05;79.33;99524.38;1726664;83;21084;-75
2022/08/07 00:11:24;;;;;;;8.43;7.60;;;;;;;21.04;79.23;99523.16;1726688;81;21088;-75
2022/08/07 00:13:51;;;;;;;7.95;7.12;;;;;;;21.01;79.43;99518.88;1726510;83;20989;-75
2022/08/07 00:16:17;;;;;;;10.65;7.95;;;;;;;20.97;79.44;99516.94;1726735;83;21131;-75
2022/08/07 00:18:43;;;;;;;13.98;9.03;;;;;;;20.98;79.33;99521.83;1726502;83;22231;-74
2022/08/07 00:21:10;;;;;;;11.03;8.65;;;;;;;20.96;79.38;99520.60;1726788;83;21135;-74
2022/08/07 00:23:38;;;;;;;13.15;9.03;;;;;;;20.92;79.55;99523.13;1726749;83;21128;-75
2022/08/07 00:26:07;;;;;;;13.83;8.60;;;;;;;20.89;79.66;99522.52;1726483;83;21053;-74
2022/08/07 00:28:33;;;;;;;10.45;8.63;;;;;;;20.86;79.75;99522.75;1742665;81;21071;-75
2022/08/07 00:31:08;;;;;;;12.63;9.38;;;;;;;20.86;79.79;99522.75;1748946;81;21079;-76
2022/08/07 00:33:35;;;;;;;17.85;9.88;;;;;;;20.83;79.94;99532.34;1747505;81;21396;-74
2022/08/07 00:36:03;;;;;;;13.32;9.73;;;;;;;20.80;80.23;99523.25;1737940;82;21105;-74
2022/08/07 00:38:31;;;;;;;22.48;9.48;;;;;;;20.80;80.23;99524.59;1737367;82;21135;-74
2022/08/07 00:40:58;;;;;;;11.68;9.35;;;;;;;20.78;80.24;99522.88;1737082;82;21131;-74
2022/08/07 00:43:25;;;;;;;18.23;9.23;;;;;;;20.78;80.19;99525.55;1737287;82;21057;-75
2022/08/07 00:45:52;;;;;;;14.35;9.00;;;;;;;20.75;80.35;99528.45;1737603;82;21020;-74
2022/08/07 00:48:18;;;;;;;11.93;8.78;;;;;;;20.73;80.43;99529.06;1737232;82;21120;-75
2022/08/07 00:50:46;;;;;;;17.60;9.60;;;;;;;20.71;80.45;99528.33;1737078;82;21119;-75
2022/08/07 00:53:12;;;;;;;9.58;8.58;;;;;;;20.70;80.46;99525.77;1737407;82;21083;-75
2022/08/07 00:55:39;;;;;;;20.23;10.18;;;;;;;20.70;80.51;99535.13;1737848;82;21606;-74
2022/08/07 00:58:06;;;;;;;17.05;10.03;;;;;;;20.67;80.86;99534.02;1751894;81;21047;-74
2022/08/07 01:00:33;;;;;;;11.83;8.95;;;;;;;20.64;81.02;99529.75;1748077;82;21484;-75
2022/08/07 01:02:59;;;;;;;12.93;9.28;;;;;;;20.64;80.93;99536.92;1748245;81;21122;-74
2022/08/07 01:05:26;;;;;;;13.60;9.43;;;;;;;20.63;80.82;99536.08;1747505;82;21075;-75
2022/08/07 01:07:53;;;;;;;11.88;8.53;;;;;;;20.61;80.92;99540.67;1747659;82;21060;-75
2022/08/07 01:10:19;;;;;;;13.50;9.30;;;;;;;20.58;80.96;99535.55;1737053;82;21047;-75
2022/08/07 01:12:46;;;;;;;15.83;9.55;;;;;;;20.56;80.96;99542.81;1717021;82;21226;-75
2022/08/07 01:15:13;;;;;;;13.18;9.25;;;;;;;20.55;80.98;99546.47;1736903;82;21075;-75
2022/08/07 01:17:39;;;;;;;14.38;9.68;;;;;;;20.54;80.97;99547.42;1737004;82;21676;-75
2022/08/07 01:20:10;;;;;;;15.80;10.08;;;;;;;20.52;81.03;99542.69;1737472;82;21049;-75
2022/08/07 01:22:38;;;;;;;21.45;11.50;;;;;;;20.48;81.19;99539.89;1747445;82;21125;-74
2022/08/07 01:25:07;;;;;;;23.42;12.33;;;;;;;20.47;81.28;99542.19;1719072;82;21108;-74
2022/08/07 01:27:34;;;;;;;18.85;10.78;;;;;;;20.46;81.53;99543.14;1737812;82;21032;-75
2022/08/07 01:30:03;;;;;;;16.62;10.78;;;;;;;20.44;81.76;99536.57;1747771;81;21141;-74
2022/08/07 01:32:29;;;;;;;19.55;10.95;;;;;;;20.45;81.47;99537.45;1715923;82;21063;-75
2022/08/07 01:34:57;;;;;;;17.32;11.18;;;;;;;20.44;81.56;99539.73;1740713;82;21626;-75
2022/08/07 01:37:24;;;;;;;16.00;10.48;;;;;;;20.42;81.80;99537.17;1734714;82;22139;-75
2022/08/07 01:39:53;;;;;;;19.67;11.30;;;;;;;20.41;82.01;99540.34;1751741;81;21000;-75
2022/08/07 01:42:21;;;;;;;22.30;10.93;;;;;;;20.40;82.19;99539.96;1734607;82;21048;-75
2022/08/07 01:44:48;;;;;;;15.10;10.53;;;;;;;20.37;82.66;99541.52;1735060;82;21083;-75
2022/08/07 01:47:15;;;;;;;18.25;11.70;;;;;;;20.36;82.52;99545.19;1734834;82;21084;-75
2022/08/07 01:49:43;;;;;;;15.35;10.70;;;;;;;20.36;82.47;99544.34;1735217;82;21116;-75
2022/08/07 01:52:10;;;;;;;12.33;9.03;;;;;;;20.37;83.01;99552.21;1732045;82;21012;-75
2022/08/07 01:54:40;;;;;;;13.58;9.78;;;;;;;20.36;82.96;99549.19;1734947;82;21080;-74
2022/08/07 01:57:18;;;;;;;14.65;9.23;;;;;;;20.35;82.72;99555.98;1734861;82;21127;-75
2022/08/07 01:59:53;;;;;;;13.28;8.70;;;;;;;20.34;82.65;99547.12;1727112;82;21569;-75
2022/08/07 02:02:24;;;;;;;15.60;9.23;;;;;;;20.32;82.46;99542.35;1734800;82;21231;-75
2022/08/07 02:05:04;;;;;;;15.32;9.90;;;;;;;20.28;82.21;99541.39;1716094;82;21005;-75
2022/08/07 02:07:37;;;;;;;11.78;8.63;;;;;;;20.27;82.08;99543.19;1748021;81;21004;-75
2022/08/07 02:10:05;;;;;;;10.65;8.05;;;;;;;20.23;82.10;99541.72;1748200;81;21027;-75
2022/08/07 02:12:37;;;;;;;11.68;8.83;;;;;;;20.23;82.17;99545.73;1747880;81;21074;-75
2022/08/07 02:15:06;;;;;;;12.28;8.20;;;;;;;20.22;82.08;99542.67;1751466;81;21513;-75
2022/08/07 02:17:37;;;;;;;9.58;8.40;;;;;;;20.18;82.10;99542.55;1748307;81;21008;-76
2022/08/07 02:20:06;;;;;;;13.10;8.90;;;;;;;20.14;82.20;99543.72;1734868;82;21076;-75
2022/08/07 02:22:35;;;;;;;13.28;8.85;;;;;;;20.14;82.45;99550.40;1735430;82;21080;-75
2022/08/07 02:25:02;;;;;;;9.90;8.88;;;;;;;20.14;83.01;99545.06;1727091;82;21177;-75
2022/08/07 02:27:28;;;;;;;10.48;8.00;;;;;;;20.10;83.02;99547.11;1751316;81;21580;-75
2022/08/07 02:29:55;;;;;;;11.65;8.38;;;;;;;20.08;83.03;99544.20;1736636;82;21021;-75
2022/08/07 02:32:23;;;;;;;11.80;8.23;;;;;;;20.08;83.03;99549.53;1736510;82;20989;-75
2022/08/07 02:34:50;;;;;;;11.33;8.25;;;;;;;20.08;83.05;99545.53;1729584;81;21976;-75
2022/08/07 02:37:16;;;;;;;10.88;8.33;;;;;;;20.08;83.27;99546.38;1706020;82;21131;-75
2022/08/07 02:39:44;;;;;;;10.25;7.78;;;;;;;20.07;83.32;99546.48;1736635;82;21558;-75
2022/08/07 02:42:13;;;;;;;10.05;7.72;;;;;;;20.05;83.36;99547.93;1736475;82;21111;-75
2022/08/07 02:44:40;;;;;;;10.08;7.87;;;;;;;20.05;83.33;99547.93;1736808;82;21573;-75
2022/08/07 02:47:07;;;;;;;9.80;7.50;;;;;;;20.04;83.33;99548.42;1737045;82;21510;-75
2022/08/07 02:49:33;;;;;;;10.82;6.97;;;;;;;20.04;83.40;99543.08;1736761;81;22116;-75
2022/08/07 02:52:02;;;;;;;7.90;7.20;;;;;;;20.04;83.46;99546.24;1736671;82;21176;-75
2022/08/07 02:54:29;;;;;;;9.18;6.85;;;;;;;20.04;83.48;99556.92;1736440;82;21076;-75
2022/08/07 02:56:59;;;;;;;10.28;8.48;;;;;;;20.04;83.45;99547.09;1729828;81;21072;-76
2022/08/07 02:59:26;;;;;;;10.90;8.70;;;;;;;20.04;83.87;99556.44;1736856;82;21114;-76
2022/08/07 03:01:53;;;;;;;10.03;8.33;;;;;;;20.03;84.39;99552.05;1705703;82;21082;-76
2022/08/07 03:04:20;;;;;;;10.55;8.58;;;;;;;20.02;84.46;99553.03;1736706;82;21154;-75
2022/08/07 03:06:46;;;;;;;10.90;7.67;;;;;;;20.04;84.38;99556.92;1736752;82;21064;-76
2022/08/07 03:09:13;;;;;;;9.88;7.83;;;;;;;20.04;84.29;99553.77;1736569;82;21012;-75
2022/08/07 03:11:40;;;;;;;8.58;7.78;;;;;;;20.06;84.30;99554.15;1736573;82;21599;-75
2022/08/07 03:14:07;;;;;;;7.92;7.10;;;;;;;20.07;84.38;99558.50;1736763;82;21523;-75
2022/08/07 03:16:34;;;;;;;7.78;6.70;;;;;;;20.07;84.45;99562.52;1739765;82;21226;-75
2022/08/07 03:19:02;;;;;;;11.15;7.85;;;;;;;20.11;84.42;99564.02;1744766;82;21088;-75
2022/08/07 03:21:28;;;;;;;8.70;7.80;;;;;;;20.13;84.26;99550.89;1744799;80;21052;-75
2022/08/07 03:23:56;;;;;;;11.20;8.05;;;;;;;20.17;84.55;99555.52;1744933;82;21025;-75
2022/08/07 03:26:25;;;;;;;8.63;7.47;;;;;;;20.19;84.79;99553.58;1713632;82;21049;-74
2022/08/07 03:28:54;;;;;;;10.10;8.10;;;;;;;20.23;85.06;99555.92;1746781;81;21165;-75
2022/08/07 03:31:22;;;;;;;9.45;8.50;;;;;;;20.26;85.31;99554.86;1747526;81;21119;-75
2022/08/07 03:33:55;;;;;;;9.30;8.18;;;;;;;20.30;85.41;99558.99;1736854;82;21066;-74
2022/08/07 03:36:24;;;;;;;8.48;7.10;;;;;;;20.33;85.30;99560.59;1736678;82;21021;-75
2022/08/07 03:38:52;;;;;;;7.53;6.72;;;;;;;20.38;84.95;99559.27;1736457;82;21360;-75
2022/08/07 03:41:19;;;;;;;14.18;7.83;;;;;;;20.45;84.65;99561.50;1737164;82;21100;-75
2022/08/07 03:43:45;;;;;;;11.75;8.43;;;;;;;20.50;84.40;99560.67;1737233;82;21064;-76
2022/08/07 03:46:12;;;;;;;11.05;7.83;;;;;;;20.56;83.43;99558.39;1737202;82;21084;-75
2022/08/07 03:48:39;;;;;;;10.40;7.72;;;;;;;20.62;82.48;99562.41;1747961;82;21202;-76
2022/08/07 03:51:05;;;;;;;11.03;8.58;;;;;;;20.70;82.21;99564.05;1726591;82;21666;-75
2022/08/07 03:53:34;;;;;;;11.10;9.35;;;;;;;20.78;82.44;99566.98;1736008;82;21087;-75
2022/08/07 03:56:00;;;;;;;11.15;9.58;;;;;;;20.84;82.79;99562.98;1747166;81;21455;-75
2022/08/07 03:58:27;;;;;;;11.15;9.90;;;;;;;20.91;83.05;99564.70;1736813;82;21646;-75
2022/08/07 04:00:56;;;;;;;11.78;10.13;;;;;;;20.97;83.85;99566.42;1737671;82;21646;-75
2022/08/07 04:03:22;;;;;;;18.82;13.22;;;;;;;21.04;84.91;99566.80;1737139;82;21047;-75
2022/08/07 04:05:50;;;;;;;20.30;11.90;;;;;;;21.10;85.46;99577.53;1747700;82;21109;-75
2022/08/07 04:08:18;;;;;;;17.95;11.40;;;;;;;21.17;86.27;99573.89;1748330;81;21001;-76
2022/08/07 04:10:47;;;;;;;11.55;10.25;;;;;;;21.23;86.45;99578.75;1736464;82;21043;-75
2022/08/07 04:13:15;;;;;;;14.03;10.82;;;;;;;21.32;86.58;99574.03;1726882;82;22371;-75
2022/08/07 04:15:42;;;;;;;14.20;11.33;;;;;;;21.40;86.58;99572.95;1747719;81;21698;-75
2022/08/07 04:18:13;;;;;;;16.32;9.20;;;;;;;21.48;86.72;99579.05;1748997;81;21093;-76
2022/08/07 04:20:40;;;;;;;12.70;9.28;;;;;;;21.57;87.13;99577.45;1736788;81;21056;-75
2022/08/07 04:23:08;;;;;;;10.75;8.83;;;;;;;21.67;87.22;99567.71;1736961;82;21124;-75
2022/08/07 04:25:41;;;;;;;18.12;9.20;;;;;;;21.76;87.12;99573.69;1737365;82;21115;-75
2022/08/07 04:28:06;;;;;;;11.88;9.00;;;;;;;21.84;86.86;99569.91;1746627;81;21601;-76
2022/08/07 04:30:34;;;;;;;10.75;9.48;;;;;;;21.92;87.23;99567.92;1736539;82;22136;-75
2022/08/07 04:33:07;;;;;;;11.05;8.73;;;;;;;22.01;87.43;99571.21;1726527;82;21135;-75
2022/08/07 04:35:36;;;;;;;13.65;8.78;;;;;;;22.12;88.17;99568.98;1726736;82;21173;-75
2022/08/07 04:38:08;;;;;;;14.63;8.03;;;;;;;22.21;88.40;99570.92;1736576;82;21131;-75
2022/08/07 04:40:42;;;;;;;10.20;7.97;;;;;;;22.31;88.63;99566.16;1747729;82;20988;-75
2022/08/07 04:43:09;;;;;;;11.70;7.37;;;;;;;22.40;88.60;99572.11;1748170;81;21133;-75
2022/08/07 04:46:07;;;;;;;9.35;6.75;;;;;;;22.53;88.18;99574.13;1736183;81;21051;-76
2022/08/07 04:49:04;;;;;;;10.75;7.05;;;;;;;22.65;87.61;99580.30;1717690;82;21043;-75
2022/08/07 04:51:38;;;;;;;10.68;7.62;;;;;;;22.77;86.95;99580.59;1737188;82;21523;-74
2022/08/07 04:54:10;;;;;;;15.63;7.53;;;;;;;22.91;86.09;99576.73;1747878;81;22077;-75
2022/08/07 04:56:53;;;;;;;7.12;6.42;;;;;;;23.04;85.51;99579.73;1745450;81;21124;-75
2022/08/07 04:59:46;;;;;;;8.38;6.60;;;;;;;23.17;85.08;99581.75;1748032;82;21016;-75
2022/08/07 05:02:29;;;;;;;11.60;6.20;;;;;;;23.26;84.25;99578.25;1747602;81;21083;-74
2022/08/07 05:05:07;;;;;;;7.80;6.28;;;;;;;23.39;84.27;99586.60;1747991;82;21016;-76
2022/08/07 05:07:55;;;;;;;6.28;5.70;;;;;;;23.49;83.89;99584.81;1737531;82;21103;-76
2022/08/07 05:10:29;;;;;;;15.32;6.12;;;;;;;23.56;83.46;99585.46;1701618;83;21210;-74
2022/08/07 05:13:17;;;;;;;7.53;6.20;;;;;;;23.67;82.73;99590.37;1703415;83;21575;-76
2022/08/07 05:15:45;;;;;;;11.05;5.83;;;;;;;23.77;82.20;99591.77;1738472;82;21358;-75
2022/08/07 05:18:28;;;;;;;6.15;5.60;;;;;;;23.83;81.83;99590.76;1738589;81;21056;-76
2022/08/07 05:20:58;;;;;;;9.03;5.78;;;;;;;23.90;81.44;99588.38;1738390;82;21150;-75
2022/08/07 05:23:33;;;;;;;7.65;6.62;;;;;;;23.96;81.04;99596.41;1738645;81;21635;-75
2022/08/07 05:26:01;;;;;;;7.10;6.40;;;;;;;23.98;80.74;99591.23;1738745;81;21202;-75
2022/08/07 05:28:29;;;;;;;11.83;6.50;;;;;;;24.00;80.60;99591.94;1738693;81;21837;-75
2022/08/07 05:30:57;;;;;;;9.30;5.95;;;;;;;24.03;81.02;99590.33;1738339;82;21326;-75
2022/08/07 05:33:26;;;;;;;7.08;5.65;;;;;;;24.07;81.32;99593.11;1738055;81;21024;-76
2022/08/07 05:35:53;;;;;;;9.20;5.75;;;;;;;24.09;81.57;99593.81;1719761;82;21169;-75
2022/08/07 05:38:21;;;;;;;6.75;5.97;;;;;;;24.14;81.51;99595.23;1738466;81;21193;-75
2022/08/07 05:40:48;;;;;;;14.53;7.15;;;;;;;24.19;81.04;99593.84;1739289;81;21127;-75
2022/08/07 05:43:14;;;;;;;7.28;5.95;;;;;;;24.29;80.27;99599.21;1737787;82;21070;-76
2022/08/07 05:45:41;;;;;;;8.90;6.15;;;;;;;24.40;80.00;99595.56;1739180;81;21003;-76
2022/08/07 05:48:08;;;;;;;14.45;7.10;;;;;;;24.52;79.69;99589.05;1738588;81;21094;-76
2022/08/07 05:50:40;;;;;;;10.70;7.30;;;;;;;24.63;79.12;99590.80;1738126;81;20992;-74
2022/08/07 05:53:07;;;;;;;9.38;6.25;;;;;;;24.73;77.45;99594.81;1738672;81;21415;-75
2022/08/07 05:55:34;;;;;;;10.18;6.78;;;;;;;24.83;77.00;99596.52;1738601;81;21036;-75
2022/08/07 05:58:01;;;;;;;7.78;6.97;;;;;;;24.94;75.73;99599.54;1738446;82;21043;-75
2022/08/07 06:00:29;;;;;;;9.08;7.00;;;;;;;25.03;75.37;99597.34;1738569;82;22587;-76
2022/08/07 06:02:57;;;;;;;9.83;7.47;;;;;;;25.13;75.13;99595.99;1738638;81;21000;-75
2022/08/07 06:05:27;;;;;;;6.95;6.25;;;;;;;25.25;74.19;99602.53;1741840;81;21043;-75
2022/08/07 06:07:52;;;;;;;15.48;7.05;;;;;;;25.35;74.02;99602.04;1711052;82;21127;-75
2022/08/07 06:10:20;;;;;;;12.50;6.55;;;;;;;25.45;74.05;99606.89;1729982;82;21622;-75
2022/08/07 06:12:47;;;;;;;8.38;6.50;;;;;;;25.55;73.33;99600.13;1743650;82;21162;-76
2022/08/07 06:15:14;;;;;;;9.08;7.30;;;;;;;25.64;73.22;99603.78;1729760;82;21052;-75
2022/08/07 06:17:43;;;;;;;10.03;7.28;;;;;;;25.72;72.35;99603.41;1743728;82;21000;-75
2022/08/07 06:20:10;;;;;;;10.28;7.00;;;;;;;25.82;72.34;99606.04;1746494;82;21137;-75
2022/08/07 06:22:40;;;;;;;6.95;6.28;;;;;;;25.92;71.94;99604.17;1729935;82;21163;-76
2022/08/07 06:25:09;;;;;;;23.12;12.43;;;;;;;26.01;71.11;99606.97;1729806;82;21181;-74
2022/08/07 06:27:36;;;;;;;19.15;12.28;;;;;;;26.08;70.21;99608.09;1729721;82;21063;-74
2022/08/07 06:30:03;;;;;;;9.85;7.20;;;;;;;26.16;70.04;99605.49;1729362;82;21056;-74
2022/08/07 06:32:30;;;;;;;7.62;6.80;;;;;;;26.22;69.23;99612.95;1730175;82;21555;-74
2022/08/07 06:34:59;;;;;;;12.63;6.40;;;;;;;26.29;69.08;99607.80;1730189;82;22137;-75
2022/08/07 06:37:26;;;;;;;10.32;7.45;;;;;;;26.39;68.55;99611.79;1743529;82;21505;-75
2022/08/07 06:39:52;;;;;;;7.40;6.58;;;;;;;26.46;68.60;99604.77;1730036;82;21060;-74
2022/08/07 06:42:35;;;;;;;12.05;7.75;;;;;;;26.55;69.02;99609.77;1730031;82;21061;-74
2022/08/07 06:45:16;;;;;;;7.47;6.22;;;;;;;26.62;68.91;99599.53;1729910;82;21559;-75
2022/08/07 06:47:43;;;;;;;7.97;6.35;;;;;;;26.74;67.80;99600.69;1729964;82;21019;-75
2022/08/07 06:50:10;;;;;;;7.00;6.30;;;;;;;26.82;67.02;99604.81;1743316;82;21187;-75
2022/08/07 06:52:40;;;;;;;7.53;6.65;;;;;;;26.89;67.23;99603.17;1743111;82;21059;-75
2022/08/07 06:55:25;;;;;;;11.55;6.60;;;;;;;26.97;67.38;99599.20;1743211;82;21059;-74
2022/08/07 06:57:54;;;;;;;9.85;6.10;;;;;;;27.07;67.31;99600.45;1743655;82;21586;-74
2022/08/07 07:00:22;;;;;;;8.90;5.53;;;;;;;27.15;67.22;99597.82;1729771;82;21111;-74
2022/08/07 07:02:48;;;;;;;7.12;6.12;;;;;;;27.24;65.51;99594.66;1743032;82;21133;-75
2022/08/07 07:05:15;;;;;;;11.03;6.17;;;;;;;27.33;66.12;99598.29;1730158;82;21003;-75
2022/08/07 07:07:45;;;;;;;7.45;6.70;;;;;;;27.40;65.82;99598.86;1737222;82;20993;-75
2022/08/07 07:10:13;;;;;;;12.30;7.03;;;;;;;27.46;65.79;99596.01;1737616;82;21147;-75
2022/08/07 07:12:51;;;;;;;8.60;6.90;;;;;;;27.54;65.76;99601.98;1736751;82;21524;-75
2022/08/07 07:15:29;;;;;;;7.30;6.60;;;;;;;27.61;65.40;99596.27;1736268;82;22309;-74
2022/08/07 07:18:07;;;;;;;7.08;6.47;;;;;;;27.73;65.81;99611.18;1736750;82;21021;-75
2022/08/07 07:20:53;;;;;;;7.40;6.55;;;;;;;27.83;65.38;99604.81;1747673;81;21595;-74
2022/08/07 07:23:19;;;;;;;11.22;5.67;;;;;;;27.91;64.90;99609.75;1745782;82;21110;-75
2022/08/07 07:25:46;;;;;;;9.30;5.00;;;;;;;27.99;64.80;99613.00;1748227;81;21147;-75
2022/08/07 07:28:23;;;;;;;15.50;5.30;;;;;;;28.06;63.21;99620.83;1747956;82;21086;-75
2022/08/07 07:30:55;;;;;;;9.53;6.10;;;;;;;28.13;63.28;99613.73;1737801;81;21131;-75
2022/08/07 07:33:21;;;;;;;9.33;5.47;;;;;;;28.22;63.15;99617.31;1734579;82;21084;-74
2022/08/07 07:35:49;;;;;;;8.88;5.50;;;;;;;28.29;62.45;99621.56;1735111;82;22311;-74
2022/08/07 07:38:18;;;;;;;5.03;4.55;;;;;;;28.34;62.09;99621.91;1734737;82;37075;-75
2022/08/07 07:40:45;;;;;;;7.50;5.53;;;;;;;28.41;62.17;99622.09;1734787;82;21170;-75
2022/08/07 07:43:12;;;;;;;5.15;4.75;;;;;;;28.46;61.90;99622.44;1734784;82;22105;-74
2022/08/07 07:45:38;;;;;;;5.90;5.12;;;;;;;28.51;61.82;99623.66;1734875;82;21061;-75
2022/08/07 07:48:05;;;;;;;5.37;4.87;;;;;;;28.61;62.33;99622.67;1734816;82;21065;-75
2022/08/07 07:50:32;;;;;;;5.22;4.83;;;;;;;28.69;62.05;99625.39;1736215;82;21151;-74
2022/08/07 07:52:58;;;;;;;8.98;4.55;;;;;;;28.75;60.05;99624.73;1734964;80;21113;-75
2022/08/07 07:55:26;;;;;;;5.30;4.90;;;;;;;28.80;59.47;99616.08;1734518;82;21714;-75
2022/08/07 07:57:53;;;;;;;6.53;5.10;;;;;;;28.87;60.63;99615.24;1734566;82;21630;-75
2022/08/07 08:00:19;;;;;;;5.17;4.78;;;;;;;28.97;59.64;99622.38;1734642;82;21085;-75
2022/08/07 08:02:48;;;;;;;6.45;4.30;;;;;;;29.06;60.08;99621.34;1734827;82;21009;-75
2022/08/07 08:05:15;;;;;;;6.78;4.83;;;;;;;29.14;57.31;99621.33;1732818;82;22339;-74
2022/08/07 08:07:43;;;;;;;5.15;4.70;;;;;;;29.18;57.82;99625.92;1726446;83;21112;-75
2022/08/07 08:10:10;;;;;;;6.15;4.95;;;;;;;29.24;58.83;99622.02;1704462;83;21135;-75
2022/08/07 08:12:36;;;;;;;5.92;4.87;;;;;;;29.33;58.57;99624.73;1726629;81;21138;-75
2022/08/07 08:15:03;;;;;;;5.80;4.50;;;;;;;29.39;57.94;99628.12;1726826;81;21076;-74
2022/08/07 08:17:30;;;;;;;7.00;4.50;;;;;;;29.44;57.73;99620.31;1726802;83;22253;-75
2022/08/07 08:20:06;;;;;;;7.33;4.62;;;;;;;29.53;56.73;99623.84;1726407;83;21615;-74
2022/08/07 08:28:18;;;;;;;4.83;3.92;;;;;;;29.80;56.42;99630.21;1727027;83;21127;-74
2022/08/07 08:30:44;;;;;;;7.33;3.70;;;;;;;29.93;56.58;99626.13;1731302;81;21132;-74
2022/08/07 08:33:15;;;;;;;4.35;3.95;;;;;;;30.05;55.56;99625.22;1734935;81;21071;-75
2022/08/07 08:35:39;;;;;;;4.15;3.85;;;;;;;30.15;54.89;99624.48;1734833;81;21861;-75
2022/08/07 08:38:06;;;;;;;6.12;3.70;;;;;;;30.24;54.24;99619.34;1735095;82;21612;-75
2022/08/07 08:40:39;;;;;;;8.85;3.67;;;;;;;30.32;53.05;99613.86;1735130;81;21048;-74
2022/08/07 08:43:23;;;;;;;3.93;3.43;;;;;;;30.40;51.21;99615.73;1730478;81;21102;-74
2022/08/07 08:45:58;;;;;;;5.25;3.15;;;;;;;30.41;51.20;99609.78;1734480;82;21107;-74
2022/08/07 08:49:13;;;;;;;3.70;3.40;;;;;;;30.48;50.75;99607.53;1734694;81;21083;-74
2022/08/07 08:51:48;;;;;;;4.72;3.35;;;;;;;30.55;50.88;99606.30;1734812;82;21012;-74
2022/08/07 08:54:23;;;;;;;5.45;3.20;;;;;;;30.63;50.27;99601.30;1734548;81;21025;-75
2022/08/07 08:56:51;;;;;;;5.97;3.90;;;;;;;30.65;50.69;99597.89;1734757;81;21520;-76
2022/08/07 08:59:34;;;;;;;3.40;3.10;;;;;;;30.72;50.47;99591.56;1737856;82;21581;-74
2022/08/07 09:02:20;;;;;;;7.37;3.95;;;;;;;30.80;50.78;99581.65;1742274;81;21059;-75
2022/08/07 09:05:13;;;;;;;3.83;3.33;;;;;;;30.78;49.14;99580.47;1742868;81;21142;-75
2022/08/07 09:08:15;;;;;;;7.15;3.22;;;;;;;30.71;49.58;99573.56;1742611;82;21079;-75
2022/08/07 09:10:49;;;;;;;2.83;2.52;;;;;;;30.60;48.96;99575.38;1742247;82;21128;-76
2022/08/07 09:13:40;;;;;;;4.62;3.50;;;;;;;30.49;48.46;99578.50;1742497;82;21091;-76
2022/08/07 09:16:14;;;;;;;2.92;2.72;;;;;;;30.41;49.48;99592.13;1742712;82;21123;-75
2022/08/07 09:19:13;;;;;;;6.15;3.00;;;;;;;30.35;50.17;99606.72;1742390;82;20992;-75
2022/08/07 09:22:00;;;;;;;3.92;2.80;;;;;;;30.29;49.40;99595.22;1742693;82;20987;-76
2022/08/07 09:24:54;;;;;;;7.42;3.00;;;;;;;30.21;50.25;99585.77;1742435;81;21134;-75
2022/08/07 09:27:50;;;;;;;3.10;2.67;;;;;;;30.16;50.48;99590.88;1742906;82;20996;-75
2022/08/07 09:30:17;;;;;;;7.22;2.98;;;;;;;30.12;51.06;99597.70;1730593;82;21122;-75
2022/08/07 09:33:07;;;;;;;4.70;3.17;;;;;;;30.01;49.90;99597.08;1703209;83;21455;-74
2022/08/07 09:35:58;;;;;;;5.62;3.30;;;;;;;29.93;51.22;99594.41;1702172;84;21067;-75
2022/08/07 09:38:40;;;;;;;4.35;3.12;;;;;;;29.85;50.20;99590.89;1701852;82;21123;-74
2022/08/07 09:41:37;;;;;;;3.90;2.98;;;;;;;29.77;51.59;99591.27;1702183;83;21001;-74
2022/08/07 09:44:27;;;;;;;3.37;3.08;;;;;;;29.68;51.25;99586.84;1702227;84;21067;-75
2022/08/07 09:47:23;;;;;;;5.12;3.12;;;;;;;29.54;49.55;99585.72;1702636;83;22054;-75
2022/08/07 09:50:22;;;;;;;3.30;2.80;;;;;;;29.28;47.11;99590.84;1701037;84;21064;-74
2022/08/07 09:52:53;;;;;;;14.90;3.47;;;;;;;28.76;47.85;99589.84;1708041;81;21119;-74
2022/08/07 09:55:40;;;;;;;6.05;3.08;;;;;;;28.08;50.32;99598.51;1702288;83;21056;-75
2022/08/07 09:58:34;;;;;;;9.00;3.47;;;;;;;27.68;52.12;99593.25;1702253;83;21134;-74
2022/08/07 10:01:09;;;;;;;10.60;3.62;;;;;;;27.42;53.99;99600.89;1693087;83;21039;-74
2022/08/07 10:04:07;;;;;;;9.50;3.87;;;;;;;27.16;56.03;99597.31;1702339;83;21000;-74
2022/08/07 10:07:02;;;;;;;6.25;3.75;;;;;;;27.03;57.31;99594.53;1702043;84;21488;-75
2022/08/07 10:10:12;;;;;;;3.98;3.60;;;;;;;26.99;57.63;99592.30;1688708;84;21115;-75
2022/08/07 10:12:48;;;;;;;6.25;3.35;;;;;;;27.02;58.34;99580.67;1688067;83;21099;-74
2022/08/07 10:15:41;;;;;;;8.88;3.70;;;;;;;27.16;59.56;99569.78;1686998;84;21111;-75
2022/08/07 10:18:25;;;;;;;6.58;3.95;;;;;;;27.28;60.64;99569.02;1687238;85;21110;-75
2022/08/07 10:21:27;;;;;;;5.47;4.23;;;;;;;27.41;61.23;99591.08;1687544;84;21107;-76
2022/08/07 10:24:24;;;;;;;10.38;3.77;;;;;;;27.52;61.69;99596.73;1687387;83;21047;-74
2022/08/07 10:27:11;;;;;;;8.08;4.30;;;;;;;27.59;60.68;99605.05;1687355;84;21048;-75
2022/08/07 10:29:58;;;;;;;5.83;3.95;;;;;;;27.63;61.76;99610.45;1655575;86;21546;-75
2022/08/07 10:33:14;;;;;;;7.90;3.75;;;;;;;27.70;60.25;99604.73;1687320;83;21610;-74
2022/08/07 10:35:46;;;;;;;;;;;;;;;27.73;57.75;99606.28;1631871;87;21246;-74
2022/08/07 10:38:44;;;;;;;7.78;3.60;;;;;;;27.67;56.48;99595.63;1686501;85;20227;-74
2022/08/07 10:41:28;;;;;;;5.40;3.30;;;;;;;27.57;54.46;99586.28;1686860;83;21967;-75
2022/08/07 10:44:19;;;;;;;3.53;3.00;;;;;;;27.53;54.35;99584.05;1687791;84;21063;-75
2022/08/07 10:46:58;;;;;;;4.12;3.40;;;;;;;27.49;55.22;99581.31;1687424;84;21098;-75
2022/08/07 10:49:49;;;;;;;6.37;3.17;;;;;;;27.46;55.16;99578.96;1688301;83;21082;-75
2022/08/07 10:52:39;;;;;;;4.42;3.27;;;;;;;27.43;55.82;99587.70;1687592;83;21142;-75
2022/08/07 10:55:14;;;;;;;16.05;7.00;;;;;;;27.41;57.69;99604.59;1687212;85;21024;-75
2022/08/07 10:58:26;;;;;;;45.48;15.95;;;;;;;27.38;57.01;99608.95;1696056;83;21049;-75
2022/08/07 11:00:58;;;;;;;9.53;5.70;;;;;;;27.28;59.58;99611.40;1708095;83;21604;-74
2022/08/07 11:03:42;;;;;;;11.45;6.08;;;;;;;26.65;60.66;99606.02;1699886;83;21117;-74
2022/08/07 11:06:34;;;;;;;6.47;5.33;;;;;;;26.04;61.47;99594.55;1641919;84;21101;-74
2022/08/07 11:09:08;;;;;;;11.20;5.90;;;;;;;25.61;64.08;99593.33;1699844;83;21694;-74
2022/08/07 11:11:42;;;;;;;10.82;6.00;;;;;;;25.18;65.76;99597.75;1700072;84;21080;-74
2022/08/07 11:14:22;;;;;;;;;;;;;;;24.80;67.80;99598.14;1701261;84;20986;-74
2022/08/07 11:17:01;;;;;;;12.10;7.90;;;;;;;24.59;68.89;99600.13;1700340;84;21106;-75
2022/08/07 11:19:39;;;;;;;15.55;6.47;;;;;;;24.55;70.91;99600.91;1699323;84;21065;-74
2022/08/07 11:22:19;;;;;;;22.32;5.62;;;;;;;24.60;72.75;99589.73;1700331;83;20991;-74
2022/08/07 11:25:10;;;;;;;26.07;6.17;;;;;;;24.66;73.67;99582.42;1686282;84;21081;-74
2022/08/07 11:27:51;;;;;;;17.65;5.08;;;;;;;24.74;73.31;99571.80;1699999;83;21046;-74
2022/08/07 11:30:19;;;;;;;10.93;4.35;;;;;;;24.65;72.41;99560.56;1700307;82;21818;-75
2022/08/07 11:33:12;;;;;;;11.15;4.83;;;;;;;24.63;72.81;99561.20;1734845;82;21048;-74
2022/08/07 11:36:12;;;;;;;9.60;4.83;;;;;;;24.62;73.80;99552.77;1735265;82;21049;-74
2022/08/07 11:39:08;;;;;;;12.23;4.65;;;;;;;24.65;74.18;99563.25;1734543;82;21136;-74
2022/08/07 11:41:43;;;;;;;6.85;4.35;;;;;;;24.71;74.41;99580.15;1735238;82;21088;-74
2022/08/07 11:44:46;;;;;;;5.45;4.40;;;;;;;24.63;74.23;99584.08;1734459;82;21138;-74
2022/08/07 11:47:39;;;;;;;6.17;4.60;;;;;;;24.59;74.26;99579.95;1734776;82;21077;-74
2022/08/07 11:50:50;;;;;;;4.60;4.20;;;;;;;24.56;74.83;99589.64;1734819;82;21037;-74
2022/08/07 11:53:22;;;;;;;5.62;5.03;;;;;;;24.58;75.23;99578.24;1734354;82;21073;-75
2022/08/07 11:56:12;;;;;;;12.63;10.08;;;;;;;24.61;75.29;99577.97;1734794;82;21136;-74
2022/08/07 11:59:19;;;;;;;18.87;9.05;;;;;;;24.60;75.68;99583.01;1734978;82;21090;-74
2022/08/07 12:02:11;;;;;;;13.03;9.18;;;;;;;24.54;76.02;99585.72;1688374;83;21059;-74
2022/08/07 12:05:16;;;;;;;14.65;7.90;;;;;;;24.42;76.66;99587.69;1729485;82;21658;-74
2022/08/07 12:08:06;;;;;;;18.75;7.85;;;;;;;24.24;77.88;99601.47;1726946;81;21123;-73